createdAt,value
2023-03-11T00:01:14.371Z,2.30
2023-03-11T00:03:43.651Z,2.30
2023-03-11T00:06:13.173Z,2.26
2023-03-11T00:08:42.428Z,2.25
2023-03-11T00:11:11.757Z,2.23
2023-03-11T00:13:41.111Z,2.22
2023-03-11T00:16:10.872Z,2.15
2023-03-11T00:18:40.222Z,2.15
2023-03-11T00:21:17.025Z,2.14
2023-03-11T00:23:47.206Z,2.12
2023-03-11T00:26:16.479Z,2.06
2023-03-11T00:28:47.982Z,2.02
2023-03-11T00:31:17.293Z,1.94
2023-03-11T00:33:46.631Z,1.89
2023-03-11T00:36:23.873Z,1.90
2023-03-11T00:38:53.934Z,1.88
2023-03-11T00:41:23.381Z,1.83
2023-03-11T00:43:52.689Z,1.78
2023-03-11T00:46:22.011Z,1.83
2023-03-11T00:48:52.663Z,1.85
2023-03-11T00:51:21.923Z,1.88
2023-03-11T00:53:51.174Z,1.90
2023-03-11T00:56:21.143Z,1.90
2023-03-11T00:58:50.474Z,1.89
2023-03-11T01:01:21.158Z,1.92
2023-03-11T01:03:50.793Z,1.97
2023-03-11T01:06:20.066Z,1.99
2023-03-11T01:08:49.429Z,1.94
2023-03-11T01:11:19.139Z,1.90
2023-03-11T01:13:48.516Z,1.86
2023-03-11T01:16:17.908Z,1.78
2023-03-11T01:18:47.220Z,1.76
2023-03-11T01:21:17.215Z,1.75
2023-03-11T01:23:46.565Z,1.71
2023-03-11T01:26:16.389Z,1.71
2023-03-11T01:28:45.679Z,1.70
2023-03-11T01:31:15.035Z,1.66
2023-03-11T01:33:44.535Z,1.70
2023-03-11T01:36:14.655Z,1.67
2023-03-11T01:38:44.009Z,1.66
2023-03-11T01:41:13.792Z,1.65
2023-03-11T01:43:54.350Z,1.65
2023-03-11T01:46:27.660Z,1.58
2023-03-11T01:48:59.679Z,1.51
2023-03-11T01:51:36.077Z,1.51
2023-03-11T01:54:10.482Z,1.56
2023-03-11T01:56:41.417Z,1.63
2023-03-11T01:59:14.519Z,1.64
2023-03-11T02:01:50.561Z,1.59
2023-03-11T02:04:21.310Z,1.53
2023-03-11T02:06:53.695Z,1.51
2023-03-11T02:09:26.397Z,1.48
2023-03-11T02:11:56.792Z,1.48
2023-03-11T02:14:29.390Z,1.52
2023-03-11T02:16:59.885Z,1.50
2023-03-11T02:19:37.584Z,1.49
2023-03-11T02:22:08.128Z,1.46
2023-03-11T02:24:45.227Z,1.46
2023-03-11T02:27:17.414Z,1.44
2023-03-11T02:29:49.617Z,1.46
2023-03-11T02:32:19.945Z,1.50
2023-03-11T02:34:49.377Z,1.55
2023-03-11T02:37:19.466Z,1.53
2023-03-11T02:40:15.802Z,1.48
2023-03-11T02:42:45.170Z,1.48
2023-03-11T02:45:18.481Z,1.44
2023-03-11T02:47:48.336Z,1.39
2023-03-11T02:50:18.698Z,1.37
2023-03-11T02:52:50.245Z,1.33
2023-03-11T02:55:20.114Z,1.27
2023-03-11T02:57:49.485Z,1.22
2023-03-11T03:00:20.617Z,1.21
2023-03-11T03:02:55.244Z,1.16
2023-03-11T03:05:25.124Z,1.17
2023-03-11T03:07:54.521Z,1.21
2023-03-11T03:10:24.347Z,1.21
2023-03-11T03:12:53.818Z,1.20
2023-03-11T03:15:23.124Z,1.15
2023-03-11T03:17:53.306Z,1.12
2023-03-11T03:20:22.657Z,1.14
2023-03-11T03:22:54.348Z,1.09
2023-03-11T03:25:26.345Z,1.09
2023-03-11T03:27:56.031Z,1.04
2023-03-11T03:30:25.586Z,1.04
2023-03-11T03:32:55.452Z,1.04
2023-03-11T03:35:24.827Z,1.08
2023-03-11T03:38:20.320Z,1.09
2023-03-11T03:40:50.348Z,1.08
2023-03-11T03:43:21.206Z,1.09
2023-03-11T03:45:58.433Z,1.10
2023-03-11T03:48:29.470Z,1.07
2023-03-11T03:51:04.300Z,1.08
2023-03-11T03:53:36.076Z,1.08
2023-03-11T03:56:07.514Z,1.08
2023-03-11T03:58:38.142Z,1.02
2023-03-11T04:01:08.351Z,1.03
2023-03-11T04:03:39.124Z,1.03
2023-03-11T04:06:18.263Z,1.07
2023-03-11T04:08:50.690Z,1.09
2023-03-11T04:11:21.067Z,1.06
2023-03-11T04:13:51.488Z,1.05
2023-03-11T04:16:22.807Z,1.04
2023-03-11T04:18:54.028Z,1.01
2023-03-11T04:21:24.185Z,0.96
2023-03-11T04:23:53.612Z,0.94
2023-03-11T04:26:24.399Z,0.91
2023-03-11T04:28:53.807Z,0.94
2023-03-11T04:31:24.072Z,0.92
2023-03-11T04:33:54.106Z,0.89
2023-03-11T04:36:24.443Z,0.89
2023-03-11T04:38:55.535Z,0.89
2023-03-11T04:41:25.542Z,0.88
2023-03-11T04:43:54.938Z,0.89
2023-03-11T04:46:24.528Z,0.92
2023-03-11T04:48:53.994Z,0.93
2023-03-11T04:51:23.492Z,0.91
2023-03-11T04:53:53.020Z,0.88
2023-03-11T04:56:22.609Z,0.87
2023-03-11T04:58:52.413Z,0.86
2023-03-11T05:01:22.608Z,0.79
2023-03-11T05:03:52.750Z,0.75
2023-03-11T05:06:22.107Z,0.78
2023-03-11T05:08:51.520Z,0.78
2023-03-11T05:11:21.125Z,0.77
2023-03-11T05:13:50.785Z,0.76
2023-03-11T05:16:20.775Z,0.73
2023-03-11T05:18:50.225Z,0.70
2023-03-11T05:21:20.004Z,0.66
2023-03-11T05:23:49.476Z,0.63
2023-03-11T05:26:18.875Z,0.62
2023-03-11T05:28:49.180Z,0.62
2023-03-11T05:31:18.542Z,0.62
2023-03-11T05:33:47.942Z,0.63
2023-03-11T05:36:17.633Z,0.64
2023-03-11T05:38:47.553Z,0.67
2023-03-11T05:41:18.381Z,0.66
2023-03-11T05:43:48.324Z,0.64
2023-03-11T05:46:19.451Z,0.62
2023-03-11T05:48:49.020Z,0.63
2023-03-11T05:51:18.643Z,0.64
2023-03-11T05:53:49.509Z,0.65
2023-03-11T05:56:24.364Z,0.63
2023-03-11T05:58:56.986Z,0.62
2023-03-11T06:01:26.385Z,0.60
2023-03-11T06:03:56.662Z,0.64
2023-03-11T06:06:26.785Z,0.68
2023-03-11T06:08:57.465Z,0.72
2023-03-11T06:11:29.230Z,0.72
2023-03-11T06:13:59.612Z,0.68
2023-03-11T06:16:29.901Z,0.68
2023-03-11T06:19:01.972Z,0.69
2023-03-11T06:21:34.425Z,0.70
2023-03-11T06:24:05.381Z,0.67
2023-03-11T06:26:34.893Z,0.70
2023-03-11T06:29:04.760Z,0.72
2023-03-11T06:31:36.604Z,0.70
2023-03-11T06:34:11.040Z,0.70
2023-03-11T06:36:40.414Z,0.68
2023-03-11T06:39:12.119Z,0.70
2023-03-11T06:41:41.927Z,0.68
2023-03-11T06:44:12.126Z,0.67
2023-03-11T06:46:41.580Z,0.67
2023-03-11T06:49:10.988Z,0.69
2023-03-11T06:51:40.893Z,0.73
2023-03-11T06:54:11.414Z,0.76
2023-03-11T06:56:40.781Z,0.74
2023-03-11T06:59:10.607Z,0.76
2023-03-11T07:01:39.902Z,0.75
2023-03-11T07:04:12.488Z,0.77
2023-03-11T07:06:43.341Z,0.81
2023-03-11T07:09:21.735Z,0.82
2023-03-11T07:11:51.356Z,0.84
2023-03-11T07:14:26.233Z,0.85
2023-03-11T07:16:58.072Z,0.84
2023-03-11T07:19:31.660Z,0.85
2023-03-11T07:22:01.011Z,0.82
2023-03-11T07:24:30.358Z,0.78
2023-03-11T07:26:59.589Z,0.81
2023-03-11T07:29:29.033Z,0.84
2023-03-11T07:31:59.391Z,0.87
2023-03-11T07:34:28.722Z,0.90
2023-03-11T07:36:58.088Z,0.93
2023-03-11T07:39:28.471Z,0.93
2023-03-11T07:41:57.721Z,0.95
2023-03-11T07:44:33.363Z,0.97
2023-03-11T07:47:04.124Z,1.01
2023-03-11T07:49:33.815Z,1.01
2023-03-11T07:52:03.232Z,1.01
2023-03-11T07:54:32.533Z,1.03
2023-03-11T07:57:03.269Z,1.01
2023-03-11T07:59:32.621Z,0.91
2023-03-11T08:02:04.353Z,0.85
2023-03-11T08:04:33.923Z,0.88
2023-03-11T08:07:03.410Z,0.86
2023-03-11T08:09:34.656Z,0.82
2023-03-11T08:12:04.258Z,0.78
2023-03-11T08:14:33.560Z,0.75
2023-03-11T08:17:03.961Z,0.76
2023-03-11T08:19:33.337Z,0.75
2023-03-11T08:22:04.226Z,0.70
2023-03-11T08:24:36.184Z,0.68
2023-03-11T08:27:05.669Z,0.68
2023-03-11T08:29:36.032Z,0.66
2023-03-11T08:32:06.739Z,0.63
2023-03-11T08:34:36.063Z,0.60
2023-03-11T08:37:05.667Z,0.58
2023-03-11T08:39:34.922Z,0.57
2023-03-11T08:42:04.566Z,0.53
2023-03-11T08:44:34.491Z,0.52
2023-03-11T08:47:03.892Z,0.51
2023-03-11T08:49:33.573Z,0.49
2023-03-11T08:52:03.425Z,0.44
2023-03-11T08:54:33.121Z,0.35
2023-03-11T08:57:04.212Z,0.33
2023-03-11T08:59:33.517Z,0.31
2023-03-11T09:02:02.941Z,0.28
2023-03-11T09:04:32.275Z,0.30
2023-03-11T09:07:01.611Z,0.32
2023-03-11T09:09:30.921Z,0.30
2023-03-11T09:12:00.193Z,0.30
2023-03-11T09:14:29.547Z,0.27
2023-03-11T09:16:58.879Z,0.24
2023-03-11T09:19:28.093Z,0.23
2023-03-11T09:21:59.524Z,0.25
2023-03-11T09:24:29.633Z,0.28
2023-03-11T09:26:58.906Z,0.28
2023-03-11T09:29:28.181Z,0.27
2023-03-11T09:31:57.664Z,0.25
2023-03-11T09:34:27.028Z,0.19
2023-03-11T09:36:56.403Z,0.17
2023-03-11T09:39:25.843Z,0.19
2023-03-11T09:41:58.856Z,0.18
2023-03-11T09:44:37.489Z,0.20
2023-03-11T09:47:30.987Z,0.19
2023-03-11T09:50:14.570Z,0.20
2023-03-11T09:52:51.552Z,0.20
2023-03-11T09:55:33.383Z,0.18
2023-03-11T09:58:10.759Z,0.15
2023-03-11T10:00:41.020Z,0.15
2023-03-11T10:03:26.051Z,0.13
2023-03-11T10:06:02.929Z,0.10
2023-03-11T10:08:39.125Z,0.11
2023-03-11T10:11:20.071Z,0.13
2023-03-11T10:13:57.770Z,0.10
2023-03-11T10:16:38.034Z,0.09
2023-03-11T10:19:15.787Z,0.11
2023-03-11T10:21:54.153Z,0.11
2023-03-11T10:24:40.936Z,0.10
2023-03-11T10:27:16.097Z,0.09
2023-03-11T10:29:55.049Z,0.12
2023-03-11T10:32:31.414Z,0.17
2023-03-11T10:35:07.236Z,0.23
2023-03-11T10:37:49.854Z,0.26
2023-03-11T10:40:26.642Z,0.24
2023-03-11T10:42:58.915Z,0.23
2023-03-11T10:45:37.984Z,0.16
2023-03-11T10:48:12.384Z,0.16
2023-03-11T10:50:50.115Z,0.15
2023-03-11T10:53:21.300Z,0.15
2023-03-11T10:55:52.962Z,0.15
2023-03-11T10:58:24.720Z,0.15
2023-03-11T11:01:07.867Z,0.15
2023-03-11T11:03:41.630Z,0.17
2023-03-11T11:06:21.772Z,0.24
2023-03-11T11:09:05.893Z,0.30
2023-03-11T11:11:35.935Z,0.38
2023-03-11T11:14:05.809Z,0.44
2023-03-11T11:16:35.833Z,0.48
2023-03-11T11:19:09.031Z,0.45
2023-03-11T11:21:40.157Z,0.46
2023-03-11T11:24:19.900Z,0.51
2023-03-11T11:27:13.840Z,0.52
2023-03-11T11:29:43.487Z,0.50
2023-03-11T11:32:20.397Z,0.50
2023-03-11T11:35:00.772Z,0.52
2023-03-11T11:37:32.568Z,0.59
2023-03-11T11:40:11.293Z,0.65
2023-03-11T11:42:46.169Z,0.72
2023-03-11T11:45:22.764Z,0.78
2023-03-11T11:47:56.637Z,0.86
2023-03-11T11:50:32.105Z,0.91
2023-03-11T11:53:13.181Z,0.91
2023-03-11T11:55:47.542Z,0.87
2023-03-11T11:58:17.417Z,0.90
2023-03-11T12:00:58.302Z,0.94
2023-03-11T12:03:45.076Z,0.95
2023-03-11T12:06:21.774Z,0.94
2023-03-11T12:09:04.951Z,0.95
2023-03-11T12:11:42.149Z,0.92
2023-03-11T12:14:18.755Z,0.91
2023-03-11T12:16:56.371Z,1.02
2023-03-11T12:19:37.608Z,1.07
2023-03-11T12:22:42.666Z,1.12
2023-03-11T12:25:32.182Z,1.15
2023-03-11T12:28:12.915Z,1.21
2023-03-11T12:30:45.803Z,1.22
2023-03-11T12:33:21.320Z,1.24
2023-03-11T12:35:55.398Z,1.28
2023-03-11T12:38:32.843Z,1.29
2023-03-11T12:41:05.612Z,1.26
2023-03-11T12:44:00.312Z,1.18
2023-03-11T12:47:10.620Z,1.05
2023-03-11T12:49:43.450Z,1.00
2023-03-11T12:52:25.856Z,0.99
2023-03-11T12:55:33.182Z,1.03
2023-03-11T12:58:36.217Z,1.01
2023-03-11T13:01:29.856Z,0.91
2023-03-11T13:04:16.404Z,0.83
2023-03-11T13:07:04.103Z,0.81
2023-03-11T13:09:33.739Z,0.79
2023-03-11T13:12:03.408Z,0.79
2023-03-11T13:14:33.557Z,0.84
2023-03-11T13:17:30.384Z,0.90
2023-03-11T13:19:59.983Z,0.92
2023-03-11T13:23:15.065Z,0.96
2023-03-11T13:26:02.521Z,0.96
2023-03-11T13:28:56.921Z,0.97
2023-03-11T13:31:42.004Z,0.97
2023-03-11T13:34:21.539Z,1.02
2023-03-11T13:37:05.115Z,1.08
2023-03-11T13:39:46.176Z,1.13
2023-03-11T13:42:22.108Z,1.18
2023-03-11T13:44:51.915Z,1.23
2023-03-11T13:47:22.628Z,1.24
2023-03-11T13:49:59.707Z,1.24
2023-03-11T13:52:34.454Z,1.22
2023-03-11T13:55:07.741Z,1.16
2023-03-11T13:57:38.071Z,1.13
2023-03-11T14:00:17.126Z,1.19
2023-03-11T14:02:54.571Z,1.32
2023-03-11T14:05:26.916Z,1.42
2023-03-11T14:08:11.233Z,1.46
2023-03-11T14:10:41.258Z,1.53
2023-03-11T14:13:18.942Z,1.58
2023-03-11T14:15:55.209Z,1.61
2023-03-11T14:18:33.534Z,1.59
2023-03-11T14:21:04.178Z,1.57
2023-03-11T14:23:39.997Z,1.62
2023-03-11T14:26:13.055Z,1.59
2023-03-11T14:28:45.108Z,1.64
2023-03-11T14:31:29.362Z,1.63
2023-03-11T14:34:03.801Z,1.61
2023-03-11T14:36:42.820Z,1.57
2023-03-11T14:39:26.535Z,1.56
2023-03-11T14:41:59.598Z,1.58
2023-03-11T14:44:30.959Z,1.62
2023-03-11T14:47:07.199Z,1.64
2023-03-11T14:49:37.659Z,1.62
2023-03-11T14:52:18.795Z,1.58
2023-03-11T14:54:49.543Z,1.53
2023-03-11T14:57:25.787Z,1.48
2023-03-11T14:59:57.203Z,1.45
2023-03-11T15:02:37.410Z,1.41
2023-03-11T15:05:14.392Z,1.37
2023-03-11T15:07:45.653Z,1.34
2023-03-11T15:10:16.052Z,1.34
2023-03-11T15:12:52.298Z,1.38
2023-03-11T15:15:27.647Z,1.37
2023-03-11T15:17:58.652Z,1.36
2023-03-11T15:20:31.463Z,1.33
2023-03-11T15:23:02.623Z,1.27
2023-03-11T15:25:34.585Z,1.20
2023-03-11T15:28:23.680Z,1.20
2023-03-11T15:31:13.067Z,1.16
2023-03-11T15:33:42.525Z,1.10
2023-03-11T15:36:33.111Z,1.07
2023-03-11T15:39:15.057Z,1.05
2023-03-11T15:41:46.342Z,1.03
2023-03-11T15:44:30.681Z,1.03
2023-03-11T15:47:00.435Z,1.02
2023-03-11T15:49:30.684Z,0.99
2023-03-11T15:52:00.879Z,0.97
2023-03-11T15:54:30.580Z,0.98
2023-03-11T15:57:01.120Z,0.98
2023-03-11T15:59:31.409Z,0.99
2023-03-11T16:02:01.124Z,0.97
2023-03-11T16:04:30.559Z,0.98
2023-03-11T16:07:07.788Z,0.97
2023-03-11T16:09:37.915Z,0.97
2023-03-11T16:12:15.873Z,0.96
2023-03-11T16:14:45.485Z,0.95
2023-03-11T16:17:15.793Z,0.96
2023-03-11T16:19:47.439Z,0.93
2023-03-11T16:22:21.508Z,0.92
2023-03-11T16:24:53.334Z,0.89
2023-03-11T16:27:23.098Z,0.88
2023-03-11T16:29:52.488Z,0.86
2023-03-11T16:32:21.849Z,0.85
2023-03-11T16:34:51.531Z,0.82
2023-03-11T16:37:20.868Z,0.80
2023-03-11T16:39:50.243Z,0.77
2023-03-11T16:42:23.487Z,0.75
2023-03-11T16:44:53.184Z,0.72
2023-03-11T16:47:22.482Z,0.74
2023-03-11T16:49:52.989Z,0.71
2023-03-11T16:52:22.894Z,0.69
2023-03-11T16:54:52.272Z,0.66
2023-03-11T16:57:21.660Z,0.65
2023-03-11T16:59:51.986Z,0.63
2023-03-11T17:02:24.344Z,0.61
2023-03-11T17:04:54.186Z,0.60
2023-03-11T17:07:24.148Z,0.58
2023-03-11T17:09:53.541Z,0.57
2023-03-11T17:12:22.911Z,0.56
2023-03-11T17:14:53.057Z,0.54
2023-03-11T17:17:23.121Z,0.52
2023-03-11T17:19:52.370Z,0.50
2023-03-11T17:22:21.618Z,0.48
2023-03-11T17:24:50.951Z,0.48
2023-03-11T17:27:20.307Z,0.48
2023-03-11T17:29:49.636Z,0.49
2023-03-11T17:32:20.891Z,0.47
2023-03-11T17:34:50.545Z,0.46
2023-03-11T17:37:20.632Z,0.46
2023-03-11T17:39:50.414Z,0.47
2023-03-11T17:42:19.782Z,0.48
2023-03-11T17:44:52.007Z,0.46
2023-03-11T17:47:25.388Z,0.43
2023-03-11T17:49:54.892Z,0.39
2023-03-11T17:52:24.382Z,0.37
2023-03-11T17:54:55.921Z,0.36
2023-03-11T17:57:25.369Z,0.38
2023-03-11T17:59:54.733Z,0.38
2023-03-11T18:02:24.021Z,0.38
2023-03-11T18:04:53.437Z,0.38
2023-03-11T18:07:23.267Z,0.41
2023-03-11T18:09:53.471Z,0.38
2023-03-11T18:12:22.886Z,0.38
2023-03-11T18:14:52.254Z,0.36
2023-03-11T18:17:21.523Z,0.35
2023-03-11T18:19:50.820Z,0.35
2023-03-11T18:22:20.189Z,0.34
2023-03-11T18:24:49.502Z,0.34
2023-03-11T18:27:18.879Z,0.35
2023-03-11T18:29:48.175Z,0.35
2023-03-11T18:32:17.613Z,0.38
2023-03-11T18:34:50.977Z,0.38
2023-03-11T18:37:20.406Z,0.42
2023-03-11T18:39:49.738Z,0.45
2023-03-11T18:42:19.070Z,0.49
2023-03-11T18:44:48.361Z,0.51
2023-03-11T18:47:17.666Z,0.54
2023-03-11T18:49:46.923Z,0.55
2023-03-11T18:52:16.240Z,0.55
2023-03-11T18:54:45.686Z,0.55
2023-03-11T18:57:15.042Z,0.53
2023-03-11T18:59:44.430Z,0.50
2023-03-11T19:02:13.755Z,0.47
2023-03-11T19:04:43.196Z,0.44
2023-03-11T19:07:12.771Z,0.44
2023-03-11T19:09:42.543Z,0.40
2023-03-11T19:12:12.065Z,0.37
2023-03-11T19:14:41.794Z,0.35
2023-03-11T19:17:12.409Z,0.35
2023-03-11T19:19:42.137Z,0.34
2023-03-11T19:22:11.436Z,0.30
2023-03-11T19:24:41.048Z,0.26
2023-03-11T19:27:10.356Z,0.23
2023-03-11T19:29:39.693Z,0.21
2023-03-11T19:32:09.020Z,0.19
2023-03-11T19:34:39.387Z,0.16
2023-03-11T19:37:08.802Z,0.12
2023-03-11T19:39:38.341Z,0.11
2023-03-11T19:42:07.812Z,0.09
2023-03-11T19:44:37.495Z,0.09
2023-03-11T19:47:06.924Z,0.08
2023-03-11T19:49:36.361Z,0.06
2023-03-11T19:52:09.250Z,0.03
2023-03-11T19:54:39.212Z,-0.01
2023-03-11T19:57:08.913Z,-0.02
2023-03-11T19:59:38.342Z,-0.05
2023-03-11T20:02:10.530Z,-0.06
2023-03-11T20:04:43.043Z,-0.07
2023-03-11T20:07:12.666Z,-0.07
2023-03-11T20:09:43.006Z,-0.06
2023-03-11T20:12:12.399Z,-0.07
2023-03-11T20:14:42.700Z,-0.08
2023-03-11T20:17:13.535Z,-0.09
2023-03-11T20:19:42.927Z,-0.09
2023-03-11T20:22:12.623Z,-0.10
2023-03-11T20:24:42.113Z,-0.10
2023-03-11T20:27:11.482Z,-0.10
2023-03-11T20:29:40.758Z,-0.10
2023-03-11T20:32:10.178Z,-0.11
2023-03-11T20:34:39.583Z,-0.11
2023-03-11T20:37:08.992Z,-0.13
2023-03-11T20:39:40.044Z,-0.15
2023-03-11T20:42:09.453Z,-0.15
2023-03-11T20:44:38.975Z,-0.15
2023-03-11T20:47:08.422Z,-0.15
2023-03-11T20:49:37.866Z,-0.17
2023-03-11T20:52:07.224Z,-0.20
2023-03-11T20:54:36.689Z,-0.20
2023-03-11T20:57:06.042Z,-0.19
2023-03-11T20:59:35.427Z,-0.20
2023-03-11T21:02:06.004Z,-0.22
2023-03-11T21:04:41.201Z,-0.21
2023-03-11T21:07:10.735Z,-0.23
2023-03-11T21:09:40.357Z,-0.25
2023-03-11T21:12:09.857Z,-0.29
2023-03-11T21:14:39.850Z,-0.31
2023-03-11T21:17:09.182Z,-0.34
2023-03-11T21:19:38.738Z,-0.36
2023-03-11T21:22:08.074Z,-0.40
2023-03-11T21:24:37.531Z,-0.38
2023-03-11T21:27:07.068Z,-0.39
2023-03-11T21:29:37.261Z,-0.39
2023-03-11T21:32:07.318Z,-0.39
2023-03-11T21:34:36.586Z,-0.42
2023-03-11T21:37:05.887Z,-0.46
2023-03-11T21:39:35.260Z,-0.48
2023-03-11T21:42:05.114Z,-0.51
2023-03-11T21:44:34.397Z,-0.54
2023-03-11T21:47:03.980Z,-0.57
2023-03-11T21:49:33.397Z,-0.58
2023-03-11T21:52:03.019Z,-0.57
2023-03-11T21:54:32.440Z,-0.57
2023-03-11T21:57:01.872Z,-0.61
2023-03-11T21:59:31.410Z,-0.64
2023-03-11T22:02:02.491Z,-0.64
2023-03-11T22:04:32.156Z,-0.64
2023-03-11T22:07:01.532Z,-0.62
2023-03-11T22:09:30.898Z,-0.61
2023-03-11T22:12:00.242Z,-0.59
2023-03-11T22:14:29.533Z,-0.55
2023-03-11T22:16:58.831Z,-0.51
2023-03-11T22:19:28.229Z,-0.48
2023-03-11T22:21:57.699Z,-0.44
2023-03-11T22:24:26.930Z,-0.39
2023-03-11T22:26:56.214Z,-0.32
2023-03-11T22:29:25.511Z,-0.26
2023-03-11T22:31:54.900Z,-0.21
2023-03-11T22:34:24.175Z,-0.16
2023-03-11T22:36:53.453Z,-0.12
2023-03-11T22:39:22.702Z,-0.10
2023-03-11T22:41:51.989Z,-0.09
2023-03-11T22:44:21.427Z,-0.06
2023-03-11T22:46:50.894Z,-0.04
2023-03-11T22:49:20.161Z,0.00
2023-03-11T22:51:49.401Z,0.04
2023-03-11T22:54:18.679Z,0.06
2023-03-11T22:56:47.988Z,0.10
2023-03-11T22:59:17.182Z,0.14
2023-03-11T23:01:46.516Z,0.18
2023-03-11T23:04:15.820Z,0.20
2023-03-11T23:06:45.100Z,0.23
2023-03-11T23:09:14.398Z,0.25
2023-03-11T23:11:43.602Z,0.28
2023-03-11T23:14:12.923Z,0.31
2023-03-11T23:16:42.297Z,0.32
2023-03-11T23:19:12.291Z,0.35
2023-03-11T23:21:41.598Z,0.37
2023-03-11T23:24:11.015Z,0.41
2023-03-11T23:26:40.249Z,0.42
2023-03-11T23:29:09.526Z,0.44
2023-03-11T23:31:38.749Z,0.48
2023-03-11T23:34:08.288Z,0.49
2023-03-11T23:36:37.516Z,0.49
2023-03-11T23:39:06.770Z,0.50
2023-03-11T23:41:37.399Z,0.51
2023-03-11T23:44:06.705Z,0.53
2023-03-11T23:46:36.043Z,0.53
2023-03-11T23:49:05.398Z,0.55
2023-03-11T23:51:34.629Z,0.56
2023-03-11T23:54:03.991Z,0.56
2023-03-11T23:56:33.374Z,0.56
2023-03-11T23:59:02.625Z,0.57
